Flight Track Log - Related Links

Times and Time Zones

All times are in EDT time to prevent confusion due to time zone crossing. See the CHH7067 flight status page for this flight to view local times or setup timezone preferences in your user account.

Time Position Orientation Groundspeed Altitude Reporting Facility
EDT Latitude Longitude Course Direction KTS MPH feet Rate Location/Type
Sun 11:15:00 AM 22.5712 112.8737 40° Northeast  Level Estimated
Sun 11:16:00 AM 22.6460 112.9440 41° Northeast  Level Estimated
Sun 11:17:00 AM 22.7208 113.0144 41° Northeast  Level Estimated
Sun 11:18:00 AM 22.7955 113.0848 41° Northeast  Level Estimated
Sun 11:19:00 AM 22.8702 113.1553 41° Northeast  Level Estimated
Sun 11:20:00 AM 22.9449 113.2260 41° Northeast  Level Estimated
Sun 11:21:00 AM 23.0195 113.2966 41° Northeast  Level Estimated
Sun 11:22:00 AM 23.0942 113.3674 41° Northeast  Level Estimated
Sun 11:23:00 AM 23.1687 113.4382 41° Northeast  Level Estimated
Sun 11:24:00 AM 23.2433 113.5092 41° Northeast  Level Estimated
Sun 11:25:00 AM 23.3178 113.5802 41° Northeast  Level Estimated
Sun 11:26:00 AM 23.3923 113.6513 41° Northeast  Level Estimated
Sun 11:27:00 AM 23.4668 113.7224 41° Northeast  Level Estimated
Sun 11:28:00 AM 23.5412 113.7936 41° Northeast  Level Estimated
Sun 11:29:00 AM 23.6156 113.8650 41° Northeast  Level Estimated
Sun 11:30:00 AM 23.6899 113.9364 41° Northeast  Level Estimated
Sun 11:31:00 AM 23.7643 114.0079 41° Northeast  Level Estimated
Sun 11:32:00 AM 23.8386 114.0794 41° Northeast  Level Estimated
Sun 11:33:00 AM 23.9128 114.1511 41° Northeast  Level Estimated
Sun 11:34:00 AM 23.9870 114.2228 41° Northeast  Level Estimated
Sun 11:35:00 AM 24.0612 114.2946 41° Northeast  Level Estimated
Sun 11:36:00 AM 24.1354 114.3665 41° Northeast  Level Estimated
Sun 11:37:00 AM 24.2095 114.4385 42° Northeast  Level Estimated
Sun 11:38:00 AM 24.2836 114.5105 42° Northeast  Level Estimated
Sun 11:39:00 AM 24.3577 114.5827 42° Northeast  Level Estimated
Sun 11:40:00 AM 24.4317 114.6549 42° Northeast  Level Estimated
Sun 11:41:00 AM 24.5057 114.7272 42° Northeast  Level Estimated
Sun 11:42:00 AM 24.5797 114.7996 42° Northeast  Level Estimated
Sun 11:43:00 AM 24.6536 114.8721 42° Northeast  Level Estimated
Sun 11:44:00 AM 24.7275 114.9447 42° Northeast  Level Estimated
Sun 11:45:00 AM 24.8013 115.0173 42° Northeast  Level Estimated
Sun 11:46:00 AM 24.8751 115.0901 42° Northeast  Level Estimated
Sun 11:47:00 AM 24.9489 115.1629 42° Northeast  Level Estimated
Sun 11:48:00 AM 25.0227 115.2358 42° Northeast  Level Estimated
Sun 11:49:00 AM 25.0964 115.3089 42° Northeast  Level Estimated
Sun 11:50:00 AM 25.1700 115.3820 42° Northeast  Level Estimated
Sun 11:51:00 AM 25.2437 115.4551 42° Northeast  Level Estimated
Sun 11:52:00 AM 25.3173 115.5284 42° Northeast  Level Estimated
Sun 11:53:00 AM 25.3909 115.6018 42° Northeast  Level Estimated
Sun 11:54:00 AM 25.4644 115.6752 42° Northeast  Level Estimated
Sun 11:55:00 AM 25.5379 115.7488 42° Northeast  Level Estimated
Sun 11:56:00 AM 25.6113 115.8224 42° Northeast  Level Estimated
Sun 11:57:00 AM 25.6847 115.8961 42° Northeast  Level Estimated
Sun 11:58:00 AM 25.7581 115.9699 42° Northeast  Level Estimated
Sun 11:59:00 AM 25.8315 116.0438 42° Northeast  Level Estimated
Sun 12:00:00 PM 25.9048 116.1178 42° Northeast  Level Estimated
Sun 12:01:00 PM 25.9781 116.1919 42° Northeast  Level Estimated
Sun 12:02:00 PM 26.0513 116.2661 42° Northeast  Level Estimated
Sun 12:03:00 PM 26.1245 116.3404 42° Northeast  Level Estimated
Sun 12:04:00 PM 26.1976 116.4147 42° Northeast  Level Estimated
Sun 12:05:00 PM 26.2708 116.4892 42° Northeast  Level Estimated
Sun 12:06:00 PM 26.3438 116.5637 42° Northeast  Level Estimated
Sun 12:07:00 PM 26.4169 116.6384 42° Northeast  Level Estimated
Sun 12:08:00 PM 26.4899 116.7131 42° Northeast  Level Estimated
Sun 12:09:00 PM 26.5629 116.7880 43° Northeast  Level Estimated
Sun 12:10:00 PM 26.6358 116.8629 43° Northeast  Level Estimated
Sun 12:11:00 PM 26.7087 116.9379 43° Northeast  Level Estimated
Sun 12:12:00 PM 26.7815 117.0130 43° Northeast  Level Estimated
Sun 12:13:00 PM 26.8543 117.0883 43° Northeast  Level Estimated
Sun 12:14:00 PM 26.9271 117.1636 43° Northeast  Level Estimated
Sun 12:15:00 PM 26.9998 117.2390 43° Northeast  Level Estimated
Sun 12:16:00 PM 27.0725 117.3145 43° Northeast  Level Estimated
Sun 12:17:00 PM 27.1451 117.3901 43° Northeast  Level Estimated
Sun 12:18:00 PM 27.2177 117.4658 43° Northeast  Level Estimated
Sun 12:19:00 PM 27.2903 117.5416 43° Northeast  Level Estimated
Sun 12:20:00 PM 27.3628 117.6175 43° Northeast  Level Estimated
Sun 12:21:00 PM 27.4353 117.6935 43° Northeast  Level Estimated
Sun 12:22:00 PM 27.5077 117.7696 43° Northeast  Level Estimated
Sun 12:23:00 PM 27.5801 117.8458 43° Northeast  Level Estimated
Sun 12:24:00 PM 27.6525 117.9221 43° Northeast  Level Estimated
Sun 12:25:00 PM 27.7248 117.9986 43° Northeast  Level Estimated
Sun 12:26:00 PM 27.7971 118.0751 43° Northeast  Level Estimated
Sun 12:27:00 PM 27.8693 118.1517 43° Northeast  Level Estimated
Sun 12:28:00 PM 27.9415 118.2284 43° Northeast  Level Estimated
Sun 12:29:00 PM 28.0137 118.3052 43° Northeast  Level Estimated
Sun 12:30:00 PM 28.0858 118.3821 43° Northeast  Level Estimated
Sun 12:31:00 PM 28.1578 118.4591 43° Northeast  Level Estimated
Sun 12:32:00 PM 28.2298 118.5363 43° Northeast  Level Estimated
Sun 12:33:00 PM 28.3018 118.6135 43° Northeast  Level Estimated
Sun 12:34:00 PM 28.3737 118.6908 43° Northeast  Level Estimated
Sun 12:35:00 PM 28.4456 118.7683 43° Northeast  Level Estimated
Sun 12:36:00 PM 28.5175 118.8458 43° Northeast  Level Estimated
Sun 12:37:00 PM 28.5893 118.9234 44° Northeast  Level Estimated
Sun 12:38:00 PM 28.6610 119.0012 44° Northeast  Level Estimated
Sun 12:39:00 PM 28.7327 119.0791 44° Northeast  Level Estimated
Sun 12:40:00 PM 28.8044 119.1570 44° Northeast  Level Estimated
Sun 12:41:00 PM 28.8760 119.2351 44° Northeast  Level Estimated
Sun 12:42:00 PM 28.9476 119.3133 44° Northeast  Level Estimated
Sun 12:43:00 PM 29.0191 119.3916 44° Northeast  Level Estimated
Sun 12:44:00 PM 29.0906 119.4700 44° Northeast  Level Estimated
Sun 12:45:00 PM 29.1621 119.5485 44° Northeast  Level Estimated
Sun 12:46:00 PM 29.2334 119.6271 44° Northeast  Level Estimated
Sun 12:47:00 PM 29.3048 119.7058 44° Northeast  Level Estimated
Sun 12:48:00 PM 29.3761 119.7847 44° Northeast  Level Estimated
Sun 12:49:00 PM 29.4473 119.8636 44° Northeast  Level Estimated
Sun 12:50:00 PM 29.5186 119.9427 44° Northeast  Level Estimated
Sun 12:51:00 PM 29.5897 120.0219 44° Northeast  Level Estimated
Sun 12:52:00 PM 29.6608 120.1012 44° Northeast  Level Estimated
Sun 12:53:00 PM 29.7319 120.1805 44° Northeast  Level Estimated
Sun 12:53:30 PM 29.3262 121.0038 27° Northeast 449 517 29,400  Level FlightAware ADS-B (ZBAA / PEK)
Sun 12:54:00 PM 29.8029 120.2600 44° Northeast  Level Estimated
Sun 12:54:09 PM 29.4090 121.0514 27° Northeast 450 518 28,500  Level FlightAware ADS-B (ZBAA / PEK)
Sun 12:54:48 PM 29.4787 121.0916 27° Northeast 454 522 27,500 -1,500 Descending FlightAware ADS-B (ZBAA / PEK)
Sun 12:55:25 PM 29.5501 121.1329 27° Northeast 452 520 26,600 -1,491 Descending FlightAware ADS-B (ZBAA / PEK)
Sun 12:57:29 PM 29.7621 121.2561 27° Northeast 428 493 23,500 -1,491 Descending FlightAware ADS-B (ZBAA / PEK)
Sun 12:58:10 PM 29.8452 121.3042 27° Northeast 416 479 22,500 -1,980 Descending FlightAware ADS-B (ZBAA / PEK)
Sun 12:59:09 PM 29.9460 121.3651 29° Northeast 402 463 20,200 -2,376 Descending FlightAware ADS-B (ZBAA / PEK)
Sun 12:59:51 PM 30.0112 121.4069 29° Northeast 398 458 18,500 -1,636 Descending FlightAware ADS-B (ZBAA / PEK)
Sun 01:01:10 PM 30.1326 121.4834 29° Northeast 385 443 16,900 -1,293 Descending FlightAware ADS-B (ZBAA / PEK)
Sun 01:01:47 PM 30.1944 121.5223 29° Northeast 375 432 16,000 -1,215 Descending FlightAware ADS-B (ZBAA / PEK)
Sun 01:02:29 PM 30.2383 121.5503 29° Northeast 369 425 15,300 -1,012 Descending FlightAware ADS-B (ZBAA / PEK)
Sun 01:03:10 PM 30.3196 121.6016 29° Northeast 368 423 14,600 -975 Descending FlightAware ADS-B (ZBAA / PEK)
Sun 01:03:49 PM 30.3750 121.6369 29° Northeast 367 422 14,000 -904 Descending FlightAware ADS-B (ZBAA / PEK)
Sun 01:04:23 PM 30.4270 121.6701 29° Northeast 369 425 13,500 -1,050 Descending FlightAware ADS-B (ZBAA / PEK)
Sun 01:05:09 PM 30.4900 121.7101 29° Northeast 364 419 12,600 -1,034 Descending FlightAware ADS-B (ZBAA / PEK)
Sun 01:05:50 PM 30.5553 121.7517 29° Northeast 355 409 12,000 -900 Descending FlightAware ADS-B (ZBAA / PEK)
Sun 01:06:29 PM 30.6124 121.7881 29° Northeast 330 380 11,400 -900 Descending FlightAware ADS-B (ZBAA / PEK)
Sun 01:07:10 PM 30.6664 121.8114 North 303 349 10,800 -878 Descending FlightAware ADS-B (ZBAA / PEK)
Sun 01:09:00 PM 30.8478 121.8041 358° North  Level Estimated
Sun 01:10:00 PM 30.9468 121.8002 358° North  Level Estimated
Sun 01:11:00 PM 31.0458 121.7962 358° North  Level Estimated
Sun 01:12:00 PM 31.1428 121.7924 358° North  Level Estimated
Sun 01:13:00 PM 31.1428 121.7924 North  Level Estimated
Sun 01:14:00 PM 31.1428 121.7924 North  Level Estimated
Sun 01:15:00 PM 31.1428 121.7924 North  Level Estimated
Sun 01:16:00 PM 31.1428 121.7924 North  Level Estimated
Sun 01:17:00 PM 31.1428 121.7924 North  Level Estimated
Sun 01:18:00 PM 31.1428 121.7924 North  Level Estimated
Sun 01:19:00 PM 31.1428 121.7924 North  Level Estimated
Sun 01:20:00 PM 31.1428 121.7924 North  Level Estimated
Sun 01:21:00 PM 31.1428 121.7924 North  Level Estimated
Sun 01:22:00 PM 31.1428 121.7924 North  Level Estimated
Sun 01:23:00 PM 31.1428 121.7924 North  Level Estimated
Sun 01:24:00 PM 31.1428 121.7924 North  Level Estimated
Sun 01:25:00 PM 31.1428 121.7924 North  Level Estimated
Sun 01:26:00 PM 31.1428 121.7924 North  Level Estimated

Login

Don't have an account? Register now (free) for customized features, flight alerts, and more!